createdAt,value
2018-11-12T00:00:03.868Z,13.87
2018-11-12T00:02:32.430Z,13.89
2018-11-12T00:05:00.972Z,13.85
2018-11-12T00:07:29.565Z,13.84
2018-11-12T00:09:58.316Z,13.80
2018-11-12T00:12:26.922Z,13.76
2018-11-12T00:14:55.068Z,13.78
2018-11-12T00:17:23.743Z,13.79
2018-11-12T00:19:52.212Z,13.81
2018-11-12T00:22:20.672Z,13.83
2018-11-12T00:24:48.942Z,13.73
2018-11-12T00:27:17.447Z,13.86
2018-11-12T00:29:46.176Z,13.82
2018-11-12T00:32:14.576Z,13.78
2018-11-12T00:34:42.688Z,13.77
2018-11-12T00:37:11.568Z,13.77
2018-11-12T00:39:39.860Z,13.77
2018-11-12T00:42:07.974Z,13.74
2018-11-12T00:44:36.192Z,13.72
2018-11-12T00:47:05.150Z,13.67
2018-11-12T00:49:33.542Z,13.59
2018-11-12T00:52:01.849Z,13.54
2018-11-12T00:54:30.537Z,13.45
2018-11-12T00:56:59.188Z,13.44
2018-11-12T00:59:27.424Z,13.30
2018-11-12T01:01:56.237Z,13.37
2018-11-12T01:04:24.664Z,13.32
2018-11-12T01:06:53.164Z,13.30
2018-11-12T01:09:21.839Z,13.28
2018-11-12T01:11:50.099Z,13.25
2018-11-12T01:14:18.821Z,13.23
2018-11-12T01:16:47.864Z,13.19
2018-11-12T01:19:16.365Z,13.17
2018-11-12T01:21:44.879Z,13.12
2018-11-12T01:24:13.333Z,13.06
2018-11-12T01:26:41.808Z,12.99
2018-11-12T01:29:09.929Z,12.93
2018-11-12T01:31:38.792Z,12.87
2018-11-12T01:34:07.101Z,12.79
2018-11-12T01:36:35.528Z,12.73
2018-11-12T01:39:06.232Z,12.69
2018-11-12T01:41:34.693Z,12.64
2018-11-12T01:44:03.500Z,12.61
2018-11-12T01:46:31.728Z,12.61
2018-11-12T01:49:00.529Z,12.61
2018-11-12T01:51:28.927Z,12.63
2018-11-12T01:53:57.232Z,12.65
2018-11-12T01:56:25.815Z,12.65
2018-11-12T01:58:54.492Z,12.66
2018-11-12T02:01:22.963Z,12.66
2018-11-12T02:03:52.098Z,12.67
2018-11-12T02:06:20.221Z,12.69
2018-11-12T02:08:48.676Z,12.70
2018-11-12T02:11:17.385Z,12.65
2018-11-12T02:13:45.992Z,12.67
2018-11-12T02:16:14.316Z,12.68
2018-11-12T02:18:43.157Z,12.69
2018-11-12T02:21:11.675Z,12.71
2018-11-12T02:23:40.140Z,12.72
2018-11-12T02:26:09.049Z,12.72
2018-11-12T02:28:37.277Z,12.71
2018-11-12T02:31:06.193Z,12.71
2018-11-12T02:33:34.701Z,12.68
2018-11-12T02:36:03.307Z,12.66
2018-11-12T02:38:31.644Z,12.47
2018-11-12T02:40:59.981Z,12.64
2018-11-12T02:43:28.787Z,12.61
2018-11-12T02:45:57.264Z,12.55
2018-11-12T02:48:25.756Z,12.56
2018-11-12T02:50:54.920Z,12.52
2018-11-12T02:53:23.301Z,12.52
2018-11-12T02:55:51.420Z,12.51
2018-11-12T02:58:20.291Z,12.48
2018-11-12T03:00:48.577Z,12.46
2018-11-12T03:03:16.855Z,12.46
2018-11-12T03:05:45.745Z,12.43
2018-11-12T03:08:14.076Z,12.37
2018-11-12T03:10:42.566Z,12.36
2018-11-12T03:13:11.375Z,12.37
2018-11-12T03:15:39.660Z,12.37
2018-11-12T03:18:08.145Z,12.39
2018-11-12T03:20:36.864Z,12.40
2018-11-12T03:23:05.317Z,12.44
2018-11-12T03:25:33.806Z,12.45
2018-11-12T03:28:02.006Z,12.48
2018-11-12T03:30:30.269Z,12.49
2018-11-12T03:32:58.610Z,12.46
2018-11-12T03:35:27.452Z,12.43
2018-11-12T03:37:55.799Z,12.39
2018-11-12T03:40:24.481Z,12.35
2018-11-12T03:42:53.095Z,12.30
2018-11-12T03:45:23.073Z,12.26
2018-11-12T03:47:53.054Z,12.25
2018-11-12T03:50:23.806Z,12.22
2018-11-12T03:52:53.617Z,12.19
2018-11-12T03:55:22.829Z,12.12
2018-11-12T03:57:51.177Z,12.13
2018-11-12T04:00:22.190Z,12.16
2018-11-12T04:02:50.463Z,12.13
2018-11-12T04:05:19.147Z,12.14
2018-11-12T04:07:51.305Z,12.15
2018-11-12T04:10:20.665Z,12.12
2018-11-12T04:12:49.410Z,12.13
2018-11-12T04:15:23.069Z,12.10
2018-11-12T04:17:51.442Z,12.04
2018-11-12T04:20:20.849Z,12.00
2018-11-12T04:23:03.405Z,11.97
2018-11-12T04:25:33.141Z,11.81
2018-11-12T04:28:02.116Z,11.91
2018-11-12T04:30:30.474Z,11.89
2018-11-12T04:32:58.804Z,11.86
2018-11-12T04:35:27.283Z,11.83
2018-11-12T04:37:55.781Z,11.82
2018-11-12T04:40:24.422Z,11.83
2018-11-12T04:42:52.869Z,11.83
2018-11-12T04:45:23.003Z,11.86
2018-11-12T04:47:52.263Z,11.75
2018-11-12T04:50:21.665Z,11.87
2018-11-12T04:52:50.281Z,11.86
2018-11-12T04:55:19.989Z,11.83
2018-11-12T04:57:48.554Z,11.81
2018-11-12T05:00:19.408Z,11.78
2018-11-12T05:02:48.261Z,11.74
2018-11-12T05:05:18.442Z,11.61
2018-11-12T05:07:47.023Z,11.73
2018-11-12T05:10:18.265Z,11.72
2018-11-12T05:12:48.984Z,11.59
2018-11-12T05:15:18.419Z,11.66
2018-11-12T05:17:47.297Z,11.64
2018-11-12T05:20:19.512Z,11.65
2018-11-12T05:22:48.133Z,11.55
2018-11-12T05:25:17.946Z,11.69
2018-11-12T05:27:46.627Z,11.73
2018-11-12T05:30:17.101Z,11.79
2018-11-12T05:32:45.405Z,11.75
2018-11-12T05:35:15.481Z,12.01
2018-11-12T05:37:44.083Z,12.11
2018-11-12T05:40:18.236Z,12.19
2018-11-12T05:42:47.138Z,12.17
2018-11-12T05:45:19.345Z,12.38
2018-11-12T05:47:48.662Z,12.43
2018-11-12T05:50:19.194Z,12.38
2018-11-12T05:52:53.183Z,12.58
2018-11-12T05:55:22.675Z,12.66
2018-11-12T05:57:51.996Z,12.70
2018-11-12T06:00:27.589Z,12.73
2018-11-12T06:02:56.063Z,12.75
2018-11-12T06:05:26.680Z,12.78
2018-11-12T06:07:57.792Z,12.81
2018-11-12T06:10:31.705Z,12.69
2018-11-12T06:13:02.899Z,12.83
2018-11-12T06:15:34.483Z,12.86
2018-11-12T06:18:03.416Z,12.94
2018-11-12T06:20:32.852Z,12.99
2018-11-12T06:23:01.602Z,13.04
2018-11-12T06:25:31.555Z,13.07
2018-11-12T06:28:00.077Z,13.08
2018-11-12T06:30:30.358Z,12.99
2018-11-12T06:32:58.811Z,13.17
2018-11-12T06:35:27.316Z,13.21
2018-11-12T06:37:55.902Z,13.23
2018-11-12T06:40:25.603Z,12.55
2018-11-12T06:42:54.207Z,13.31
2018-11-12T06:45:25.972Z,13.32
2018-11-12T06:47:55.448Z,13.36
2018-11-12T06:50:25.125Z,13.39
2018-11-12T06:52:53.731Z,13.41
2018-11-12T06:55:22.853Z,13.41
2018-11-12T06:57:51.444Z,13.41
2018-11-12T07:00:21.829Z,13.42
2018-11-12T07:02:50.716Z,13.05
2018-11-12T07:05:19.423Z,13.56
2018-11-12T07:07:47.749Z,13.51
2018-11-12T07:10:17.895Z,13.70
2018-11-12T07:12:47.028Z,13.75
2018-11-12T07:15:17.972Z,13.78
2018-11-12T07:17:46.949Z,13.77
2018-11-12T07:20:18.307Z,13.78
2018-11-12T07:22:46.651Z,13.80
2018-11-12T07:25:16.391Z,13.80
2018-11-12T07:27:44.633Z,13.83
2018-11-12T07:30:15.918Z,13.85
2018-11-12T07:32:45.159Z,13.89
2018-11-12T07:35:14.490Z,13.69
2018-11-12T07:37:43.649Z,13.96
2018-11-12T07:40:13.183Z,13.99
2018-11-12T07:42:41.945Z,14.05
2018-11-12T07:45:14.265Z,14.09
2018-11-12T07:47:43.747Z,14.14
2018-11-12T07:50:13.682Z,14.19
2018-11-12T07:52:42.446Z,14.26
2018-11-12T07:55:13.085Z,14.32
2018-11-12T07:57:41.909Z,14.37
2018-11-12T08:00:13.475Z,14.45
2018-11-12T08:02:42.968Z,14.54
2018-11-12T08:05:12.184Z,14.65
2018-11-12T08:07:41.244Z,14.82
2018-11-12T08:10:11.915Z,15.03
2018-11-12T08:12:41.224Z,15.26
2018-11-12T08:15:11.146Z,15.43
2018-11-12T08:17:39.669Z,15.53
2018-11-12T08:20:10.577Z,15.59
2018-11-12T08:22:39.060Z,15.69
2018-11-12T08:25:08.233Z,15.82
2018-11-12T08:27:36.766Z,15.91
2018-11-12T08:30:06.786Z,15.82
2018-11-12T08:32:35.158Z,16.04
2018-11-12T08:35:03.987Z,16.13
2018-11-12T08:37:32.338Z,16.17
2018-11-12T08:40:01.358Z,16.26
2018-11-12T08:42:30.214Z,16.24
2018-11-12T08:44:58.332Z,16.63
2018-11-12T08:47:26.481Z,16.78
2018-11-12T08:49:54.919Z,16.87
2018-11-12T08:52:23.067Z,16.95
2018-11-12T08:54:51.309Z,17.00
2018-11-12T08:57:19.656Z,17.01
2018-11-12T08:59:47.952Z,16.90
2018-11-12T09:02:16.091Z,17.05
2018-11-12T09:04:44.644Z,17.09
2018-11-12T09:07:13.495Z,17.15
2018-11-12T09:09:41.804Z,17.20
2018-11-12T09:12:10.021Z,17.27
2018-11-12T09:14:38.449Z,17.34
2018-11-12T09:17:06.559Z,17.38
2018-11-12T09:19:34.944Z,17.32
2018-11-12T09:22:03.091Z,16.88
2018-11-12T09:24:31.406Z,17.09
2018-11-12T09:26:59.823Z,17.06
2018-11-12T09:29:28.438Z,17.04
2018-11-12T09:31:56.884Z,17.06
2018-11-12T09:34:24.941Z,17.12
2018-11-12T09:36:53.123Z,17.20
2018-11-12T09:39:22.205Z,17.34
2018-11-12T09:41:51.082Z,17.49
2018-11-12T09:44:19.230Z,17.66
2018-11-12T09:46:47.285Z,17.78
2018-11-12T09:49:15.901Z,17.91
2018-11-12T09:51:43.889Z,18.08
2018-11-12T09:54:12.555Z,18.18
2018-11-12T09:56:40.619Z,18.25
2018-11-12T09:59:09.059Z,18.24
2018-11-12T10:01:38.568Z,18.22
2018-11-12T10:04:07.355Z,18.26
2018-11-12T10:06:35.898Z,18.34
2018-11-12T10:09:06.246Z,18.45
2018-11-12T10:11:34.609Z,18.53
2018-11-12T10:14:02.987Z,18.50
2018-11-12T10:16:32.382Z,18.42
2018-11-12T10:18:57.557Z,18.47
2018-11-12T10:21:25.947Z,18.54
2018-11-12T10:23:54.309Z,18.58
2018-11-12T10:26:22.455Z,18.65
2018-11-12T10:28:50.812Z,18.62
2018-11-12T10:31:19.328Z,18.60
2018-11-12T10:33:48.153Z,18.62
2018-11-12T10:36:16.422Z,18.68
2018-11-12T10:38:44.787Z,18.65
2018-11-12T10:41:12.948Z,18.63
2018-11-12T10:43:41.206Z,18.71
2018-11-12T10:46:09.585Z,18.53
2018-11-12T10:48:37.988Z,18.80
2018-11-12T10:51:06.191Z,18.74
2018-11-12T10:53:34.843Z,18.77
2018-11-12T10:56:02.986Z,18.80
2018-11-12T10:58:31.163Z,18.81
2018-11-12T11:01:05.243Z,18.75
2018-11-12T11:03:38.742Z,18.69
2018-11-12T11:06:07.691Z,18.59
2018-11-12T11:08:35.788Z,18.58
2018-11-12T11:11:04.148Z,18.63
2018-11-12T11:13:32.574Z,18.66
2018-11-12T11:16:00.806Z,18.80
2018-11-12T11:18:29.332Z,18.79
2018-11-12T11:20:57.856Z,18.81
2018-11-12T11:23:25.930Z,18.89
2018-11-12T11:25:54.129Z,18.77
2018-11-12T11:28:22.287Z,19.36
2018-11-12T11:30:50.604Z,19.48
2018-11-12T11:33:19.350Z,19.49
2018-11-12T11:35:47.438Z,19.79
2018-11-12T11:38:15.612Z,19.67
2018-11-12T11:40:44.457Z,19.46
2018-11-12T11:43:12.841Z,19.32
2018-11-12T11:45:41.178Z,19.22
2018-11-12T11:48:09.809Z,19.16
2018-11-12T11:50:38.152Z,19.21
2018-11-12T11:53:06.444Z,19.40
2018-11-12T11:55:35.044Z,19.52
2018-11-12T11:58:03.657Z,19.81
2018-11-12T12:00:31.934Z,19.86
2018-11-12T12:03:00.341Z,20.07
2018-11-12T12:05:28.852Z,20.12
2018-11-12T12:07:57.475Z,20.17
2018-11-12T12:10:26.077Z,20.18
2018-11-12T12:12:54.162Z,20.23
2018-11-12T12:15:23.016Z,20.28
2018-11-12T12:17:51.144Z,20.25
2018-11-12T12:20:21.725Z,20.41
2018-11-12T12:22:50.125Z,20.45
2018-11-12T12:25:19.311Z,20.52
2018-11-12T12:27:48.347Z,20.62
2018-11-12T12:30:18.733Z,20.70
2018-11-12T12:32:47.686Z,20.78
2018-11-12T12:35:15.788Z,20.78
2018-11-12T12:37:44.575Z,20.76
2018-11-12T12:40:14.262Z,20.72
2018-11-12T12:42:42.981Z,20.72
2018-11-12T12:45:12.891Z,20.66
2018-11-12T12:47:41.472Z,20.61
2018-11-12T12:50:11.379Z,20.56
2018-11-12T12:52:39.493Z,20.46
2018-11-12T12:55:09.776Z,20.36
2018-11-12T12:57:37.943Z,20.27
2018-11-12T13:00:09.694Z,20.23
2018-11-12T13:02:39.040Z,20.26
2018-11-12T13:05:07.679Z,20.31
2018-11-12T13:07:36.571Z,20.32
2018-11-12T13:10:07.107Z,20.33
2018-11-12T13:12:35.520Z,20.36
2018-11-12T13:15:04.850Z,20.37
2018-11-12T13:17:33.581Z,20.23
2018-11-12T13:20:02.209Z,20.17
2018-11-12T13:22:30.448Z,20.14
2018-11-12T13:24:58.821Z,19.60
2018-11-12T13:27:27.232Z,20.09
2018-11-12T13:29:55.912Z,20.07
2018-11-12T13:32:24.202Z,19.93
2018-11-12T13:34:52.269Z,19.94
2018-11-12T13:37:21.230Z,19.84
2018-11-12T13:39:49.473Z,19.74
2018-11-12T13:42:17.582Z,19.69
2018-11-12T13:44:46.421Z,19.56
2018-11-12T13:47:14.525Z,19.48
2018-11-12T13:49:42.894Z,19.24
2018-11-12T13:52:11.578Z,19.48
2018-11-12T13:54:39.674Z,19.41
2018-11-12T13:57:07.899Z,19.34
2018-11-12T13:59:36.588Z,19.26
2018-11-12T14:02:05.138Z,19.20
2018-11-12T14:04:33.647Z,19.16
2018-11-12T14:07:02.465Z,19.02
2018-11-12T14:09:30.846Z,19.09
2018-11-12T14:11:59.898Z,18.98
2018-11-12T14:14:28.774Z,18.81
2018-11-12T14:16:57.410Z,18.95
2018-11-12T14:19:25.648Z,18.89
2018-11-12T14:21:54.240Z,18.82
2018-11-12T14:24:22.322Z,18.75
2018-11-12T14:26:50.488Z,18.51
2018-11-12T14:29:19.016Z,18.66
2018-11-12T14:31:47.153Z,18.62
2018-11-12T14:34:15.721Z,18.57
2018-11-12T14:36:44.485Z,18.52
2018-11-12T14:39:12.537Z,18.48
2018-11-12T14:41:40.983Z,18.45
2018-11-12T14:44:09.851Z,18.43
2018-11-12T14:46:37.996Z,18.38
2018-11-12T14:49:06.188Z,18.35
2018-11-12T14:51:34.761Z,18.31
2018-11-12T14:54:04.019Z,18.25
2018-11-12T14:56:32.660Z,18.18
2018-11-12T14:59:01.052Z,18.09
2018-11-12T15:01:29.131Z,17.75
2018-11-12T15:03:57.359Z,17.83
2018-11-12T15:06:25.513Z,17.76
2018-11-12T15:08:53.668Z,17.30
2018-11-12T15:11:22.193Z,17.60
2018-11-12T15:13:50.357Z,17.54
2018-11-12T15:16:18.583Z,17.46
2018-11-12T15:18:46.831Z,17.40
2018-11-12T15:21:15.711Z,17.14
2018-11-12T15:23:43.922Z,17.28
2018-11-12T15:26:12.130Z,17.19
2018-11-12T15:28:40.733Z,17.07
2018-11-12T15:31:08.959Z,16.99
2018-11-12T15:33:37.237Z,16.91
2018-11-12T15:36:05.884Z,16.83
2018-11-12T15:38:34.007Z,16.80
2018-11-12T15:41:02.194Z,16.79
2018-11-12T15:43:30.332Z,16.76
2018-11-12T15:45:58.693Z,16.71
2018-11-12T15:48:26.851Z,16.59
2018-11-12T15:50:55.452Z,16.67
2018-11-12T15:53:23.660Z,16.67
2018-11-12T15:55:51.975Z,16.64
2018-11-12T15:58:20.158Z,16.66
2018-11-12T16:00:48.412Z,16.64
2018-11-12T16:03:17.304Z,16.42
2018-11-12T16:05:46.792Z,16.60
2018-11-12T16:08:15.007Z,16.53
2018-11-12T16:10:43.265Z,16.63
2018-11-12T16:13:11.689Z,16.60
2018-11-12T16:15:39.934Z,16.47
2018-11-12T16:18:08.376Z,16.54
2018-11-12T16:20:37.714Z,16.03
2018-11-12T16:23:06.145Z,16.47
2018-11-12T16:25:34.234Z,15.92
2018-11-12T16:28:03.014Z,16.38
2018-11-12T16:30:31.551Z,16.35
2018-11-12T16:33:06.749Z,15.65
2018-11-12T16:35:39.066Z,16.32
2018-11-12T16:38:09.122Z,16.30
2018-11-12T16:40:38.074Z,16.31
2018-11-12T16:43:06.764Z,16.30
2018-11-12T16:45:34.841Z,16.29
2018-11-12T16:48:03.221Z,16.27
2018-11-12T16:50:31.935Z,16.23
2018-11-12T16:53:00.189Z,15.92
2018-11-12T16:55:28.323Z,15.92
2018-11-12T16:57:57.358Z,16.19
2018-11-12T17:00:25.589Z,16.20
2018-11-12T17:02:53.767Z,16.20
2018-11-12T17:05:23.564Z,16.20
2018-11-12T17:07:51.680Z,16.20
2018-11-12T17:10:21.572Z,16.07
2018-11-12T17:12:50.272Z,16.18
2018-11-12T17:15:18.513Z,16.16
2018-11-12T17:17:51.058Z,16.14
2018-11-12T17:20:20.536Z,16.13
2018-11-12T17:22:48.653Z,16.10
2018-11-12T17:25:17.597Z,15.90
2018-11-12T17:27:46.770Z,16.07
2018-11-12T17:30:17.313Z,16.04
2018-11-12T17:32:46.179Z,16.01
2018-11-12T17:35:16.190Z,15.98
2018-11-12T17:37:48.453Z,15.94
2018-11-12T17:40:17.820Z,15.91
2018-11-12T17:42:47.300Z,15.91
2018-11-12T17:45:16.632Z,15.92
2018-11-12T17:47:46.005Z,15.91
2018-11-12T17:50:15.331Z,15.91
2018-11-12T17:52:43.588Z,15.90
2018-11-12T17:55:12.145Z,15.45
2018-11-12T17:57:40.696Z,15.88
2018-11-12T18:00:15.100Z,15.87
2018-11-12T18:02:43.207Z,15.88
2018-11-12T18:05:11.708Z,15.87
2018-11-12T18:07:40.785Z,15.85
2018-11-12T18:10:09.697Z,15.85
2018-11-12T18:12:38.681Z,15.71
2018-11-12T18:15:10.427Z,15.82
2018-11-12T18:17:38.897Z,15.81
2018-11-12T18:20:14.502Z,15.81
2018-11-12T18:22:42.868Z,15.67
2018-11-12T18:25:11.564Z,15.81
2018-11-12T18:27:40.178Z,15.82
2018-11-12T18:30:10.755Z,15.84
2018-11-12T18:32:39.366Z,15.87
2018-11-12T18:35:08.449Z,15.88
2018-11-12T18:37:37.153Z,15.88
2018-11-12T18:40:06.851Z,15.61
2018-11-12T18:42:35.308Z,15.93
2018-11-12T18:45:03.420Z,15.75
2018-11-12T18:47:31.725Z,15.76
2018-11-12T18:49:59.960Z,15.96
2018-11-12T18:52:28.042Z,15.89
2018-11-12T18:54:56.654Z,15.83
2018-11-12T18:57:25.948Z,15.37
2018-11-12T18:59:54.095Z,15.71
2018-11-12T19:02:22.799Z,15.66
2018-11-12T19:04:51.082Z,15.63
2018-11-12T19:07:19.201Z,15.59
2018-11-12T19:09:47.598Z,15.57
2018-11-12T19:12:15.877Z,15.57
2018-11-12T19:14:44.179Z,15.57
2018-11-12T19:17:12.742Z,15.60
2018-11-12T19:19:41.020Z,15.30
2018-11-12T19:22:09.130Z,15.59
2018-11-12T19:24:37.239Z,15.58
2018-11-12T19:27:05.367Z,15.57
2018-11-12T19:29:33.474Z,15.56
2018-11-12T19:32:02.625Z,15.28
2018-11-12T19:34:30.819Z,15.54
2018-11-12T19:36:58.968Z,15.54
2018-11-12T19:39:27.061Z,15.54
2018-11-12T19:41:55.238Z,15.54
2018-11-12T19:44:23.842Z,15.22
2018-11-12T19:46:51.988Z,15.52
2018-11-12T19:49:20.614Z,15.31
2018-11-12T19:51:49.220Z,15.47
2018-11-12T19:54:17.360Z,15.23
2018-11-12T19:56:45.452Z,15.41
2018-11-12T19:59:14.093Z,15.34
2018-11-12T20:01:42.259Z,15.34
2018-11-12T20:04:10.435Z,15.30
2018-11-12T20:06:39.070Z,15.26
2018-11-12T20:09:08.362Z,15.23
2018-11-12T20:11:36.421Z,15.20
2018-11-12T20:14:04.798Z,15.19
2018-11-12T20:16:33.073Z,15.18
2018-11-12T20:19:01.386Z,15.21
2018-11-12T20:21:29.995Z,15.22
2018-11-12T20:23:58.434Z,15.19
2018-11-12T20:26:26.630Z,14.90
2018-11-12T20:28:55.790Z,15.21
2018-11-12T20:31:24.182Z,15.24
2018-11-12T20:33:52.407Z,15.28
2018-11-12T20:36:21.017Z,15.34
2018-11-12T20:38:49.297Z,15.26
2018-11-12T20:41:17.459Z,15.41
2018-11-12T20:43:46.051Z,15.43
2018-11-12T20:46:14.154Z,15.31
2018-11-12T20:48:42.423Z,15.38
2018-11-12T20:51:11.077Z,15.36
2018-11-12T20:53:39.812Z,15.34
2018-11-12T20:56:08.468Z,15.33
2018-11-12T20:58:37.163Z,15.31
2018-11-12T21:01:05.294Z,15.27
2018-11-12T21:03:33.410Z,14.74
2018-11-12T21:06:01.892Z,15.24
2018-11-12T21:08:30.509Z,15.23
2018-11-12T21:10:58.632Z,15.21
2018-11-12T21:13:27.025Z,14.50
2018-11-12T21:15:55.147Z,15.19
2018-11-12T21:18:23.333Z,15.18
2018-11-12T21:20:51.868Z,15.17
2018-11-12T21:23:20.813Z,15.17
2018-11-12T21:25:48.929Z,15.12
2018-11-12T21:28:17.491Z,15.18
2018-11-12T21:30:45.650Z,15.18
2018-11-12T21:33:13.739Z,15.17
2018-11-12T21:35:41.872Z,15.08
2018-11-12T21:38:10.216Z,15.17
2018-11-12T21:40:39.024Z,15.17
2018-11-12T21:43:07.777Z,15.18
2018-11-12T21:45:36.446Z,15.17
2018-11-12T21:48:05.317Z,15.17
2018-11-12T21:50:34.052Z,15.16
2018-11-12T21:53:02.290Z,15.14
2018-11-12T21:55:30.575Z,15.10
2018-11-12T21:57:59.099Z,15.08
2018-11-12T22:00:28.314Z,15.03
2018-11-12T22:03:00.275Z,14.98
2018-11-12T22:05:29.723Z,14.96
2018-11-12T22:07:57.848Z,14.95
2018-11-12T22:10:26.054Z,14.92
2018-11-12T22:12:54.610Z,14.88
2018-11-12T22:15:23.038Z,14.86
2018-11-12T22:17:52.637Z,14.83
2018-11-12T22:20:22.435Z,14.81
2018-11-12T22:22:50.608Z,14.79
2018-11-12T22:25:20.041Z,14.76
2018-11-12T22:27:49.106Z,14.77
2018-11-12T22:30:18.811Z,14.55
2018-11-12T22:32:48.034Z,14.78
2018-11-12T22:35:16.134Z,14.80
2018-11-12T22:37:44.793Z,14.81
2018-11-12T22:40:14.015Z,14.83
2018-11-12T22:42:43.128Z,14.88
2018-11-12T22:45:13.738Z,14.92
2018-11-12T22:47:42.287Z,14.95
2018-11-12T22:50:10.928Z,14.45
2018-11-12T22:52:39.834Z,15.00
2018-11-12T22:55:08.825Z,15.00
2018-11-12T22:57:37.727Z,15.01
2018-11-12T23:00:16.037Z,15.00
2018-11-12T23:02:44.805Z,15.02
2018-11-12T23:05:13.380Z,15.03
2018-11-12T23:07:41.502Z,15.01
2018-11-12T23:10:09.760Z,15.04
2018-11-12T23:12:38.340Z,15.03
2018-11-12T23:15:07.737Z,15.03
2018-11-12T23:17:36.829Z,15.04
2018-11-12T23:20:07.136Z,15.01
2018-11-12T23:22:35.609Z,15.04
2018-11-12T23:25:03.942Z,15.05
2018-11-12T23:27:32.425Z,15.04
2018-11-12T23:30:00.974Z,15.04
2018-11-12T23:32:29.721Z,15.04
2018-11-12T23:34:57.941Z,15.04
2018-11-12T23:37:26.341Z,14.94
2018-11-12T23:39:54.636Z,15.06
2018-11-12T23:42:22.869Z,15.07
2018-11-12T23:44:51.313Z,15.03
2018-11-12T23:47:20.198Z,15.01
2018-11-12T23:49:48.674Z,14.98
2018-11-12T23:52:16.912Z,14.83
2018-11-12T23:54:45.802Z,14.88
2018-11-12T23:57:14.088Z,14.85
2018-11-12T23:59:42.339Z,14.82
